sensor_id;sensor_type;location;lat;lon;timestamp;P1;durP1;ratioP1;P2;durP2;ratioP2
73454;SDS011;61690;51.824;6.306;2022-08-25T00:01:31;7.15;;;4.72;;
73454;SDS011;61690;51.824;6.306;2022-08-25T00:03:59;10.30;;;5.10;;
73454;SDS011;61690;51.824;6.306;2022-08-25T00:06:26;6.72;;;4.53;;
73454;SDS011;61690;51.824;6.306;2022-08-25T00:08:53;9.00;;;5.00;;
73454;SDS011;61690;51.824;6.306;2022-08-25T00:11:23;7.37;;;4.43;;
73454;SDS011;61690;51.824;6.306;2022-08-25T00:13:52;6.45;;;4.47;;
73454;SDS011;61690;51.824;6.306;2022-08-25T00:16:20;8.65;;;4.90;;
73454;SDS011;61690;51.824;6.306;2022-08-25T00:18:48;6.65;;;4.70;;
73454;SDS011;61690;51.824;6.306;2022-08-25T00:21:16;8.55;;;4.90;;
73454;SDS011;61690;51.824;6.306;2022-08-25T00:23:42;7.70;;;4.43;;
73454;SDS011;61690;51.824;6.306;2022-08-25T00:26:09;6.82;;;4.75;;
73454;SDS011;61690;51.824;6.306;2022-08-25T00:28:36;7.03;;;5.10;;
73454;SDS011;61690;51.824;6.306;2022-08-25T00:31:02;8.13;;;4.93;;
73454;SDS011;61690;51.824;6.306;2022-08-25T00:33:29;8.57;;;5.13;;
73454;SDS011;61690;51.824;6.306;2022-08-25T00:35:55;10.43;;;5.17;;
73454;SDS011;61690;51.824;6.306;2022-08-25T00:38:22;7.68;;;4.85;;
73454;SDS011;61690;51.824;6.306;2022-08-25T00:40:47;9.35;;;5.22;;
73454;SDS011;61690;51.824;6.306;2022-08-25T00:46:14;6.10;;;4.55;;
73454;SDS011;61690;51.824;6.306;2022-08-25T00:48:42;10.07;;;5.07;;
73454;SDS011;61690;51.824;6.306;2022-08-25T00:51:11;7.20;;;4.70;;
73454;SDS011;61690;51.824;6.306;2022-08-25T00:53:40;8.27;;;4.90;;
73454;SDS011;61690;51.824;6.306;2022-08-25T00:56:07;9.27;;;4.75;;
73454;SDS011;61690;51.824;6.306;2022-08-25T00:58:33;7.43;;;4.85;;
73454;SDS011;61690;51.824;6.306;2022-08-25T01:00:59;7.43;;;4.93;;
73454;SDS011;61690;51.824;6.306;2022-08-25T01:03:26;9.90;;;4.97;;
73454;SDS011;61690;51.824;6.306;2022-08-25T01:05:54;9.35;;;5.05;;
73454;SDS011;61690;51.824;6.306;2022-08-25T01:08:21;8.63;;;4.90;;
73454;SDS011;61690;51.824;6.306;2022-08-25T01:10:50;7.70;;;5.00;;
73454;SDS011;61690;51.824;6.306;2022-08-25T01:15:48;8.90;;;4.93;;
73454;SDS011;61690;51.824;6.306;2022-08-25T01:18:17;7.50;;;5.10;;
73454;SDS011;61690;51.824;6.306;2022-08-25T01:23:13;8.35;;;4.72;;
73454;SDS011;61690;51.824;6.306;2022-08-25T01:25:47;9.10;;;5.05;;
73454;SDS011;61690;51.824;6.306;2022-08-25T01:28:20;12.40;;;5.00;;
73454;SDS011;61690;51.824;6.306;2022-08-25T01:30:46;8.25;;;5.20;;
73454;SDS011;61690;51.824;6.306;2022-08-25T01:33:11;9.07;;;4.90;;
73454;SDS011;61690;51.824;6.306;2022-08-25T01:35:38;10.10;;;4.97;;
73454;SDS011;61690;51.824;6.306;2022-08-25T01:38:05;8.55;;;5.10;;
73454;SDS011;61690;51.824;6.306;2022-08-25T01:40:32;8.13;;;4.95;;
73454;SDS011;61690;51.824;6.306;2022-08-25T01:45:36;8.80;;;5.20;;
73454;SDS011;61690;51.824;6.306;2022-08-25T01:48:03;7.63;;;4.90;;
73454;SDS011;61690;51.824;6.306;2022-08-25T01:50:30;8.05;;;4.70;;
73454;SDS011;61690;51.824;6.306;2022-08-25T01:55:29;8.77;;;4.30;;
73454;SDS011;61690;51.824;6.306;2022-08-25T01:57:55;7.68;;;4.80;;
73454;SDS011;61690;51.824;6.306;2022-08-25T02:00:22;8.30;;;4.90;;
73454;SDS011;61690;51.824;6.306;2022-08-25T02:02:48;7.57;;;4.80;;
73454;SDS011;61690;51.824;6.306;2022-08-25T02:05:13;8.77;;;4.80;;
73454;SDS011;61690;51.824;6.306;2022-08-25T02:07:40;8.90;;;4.63;;
73454;SDS011;61690;51.824;6.306;2022-08-25T02:10:07;7.17;;;4.87;;
73454;SDS011;61690;51.824;6.306;2022-08-25T02:12:34;7.93;;;4.60;;
73454;SDS011;61690;51.824;6.306;2022-08-25T02:15:00;9.13;;;4.70;;
73454;SDS011;61690;51.824;6.306;2022-08-25T02:17:27;8.77;;;4.80;;
73454;SDS011;61690;51.824;6.306;2022-08-25T02:19:53;8.45;;;4.70;;
73454;SDS011;61690;51.824;6.306;2022-08-25T02:22:20;9.10;;;4.70;;
73454;SDS011;61690;51.824;6.306;2022-08-25T02:24:46;8.32;;;4.90;;
73454;SDS011;61690;51.824;6.306;2022-08-25T02:27:12;7.27;;;4.90;;
73454;SDS011;61690;51.824;6.306;2022-08-25T02:29:37;7.63;;;4.83;;
73454;SDS011;61690;51.824;6.306;2022-08-25T02:32:02;8.73;;;4.90;;
73454;SDS011;61690;51.824;6.306;2022-08-25T02:34:28;8.63;;;4.67;;
73454;SDS011;61690;51.824;6.306;2022-08-25T02:36:54;7.43;;;4.70;;
73454;SDS011;61690;51.824;6.306;2022-08-25T02:39:19;8.15;;;5.00;;
73454;SDS011;61690;51.824;6.306;2022-08-25T02:41:44;7.73;;;4.80;;
73454;SDS011;61690;51.824;6.306;2022-08-25T02:44:10;7.90;;;4.90;;
73454;SDS011;61690;51.824;6.306;2022-08-25T02:46:35;8.43;;;4.87;;
73454;SDS011;61690;51.824;6.306;2022-08-25T02:49:02;7.75;;;5.10;;
73454;SDS011;61690;51.824;6.306;2022-08-25T02:51:29;7.40;;;4.80;;
73454;SDS011;61690;51.824;6.306;2022-08-25T02:53:54;6.97;;;4.87;;
73454;SDS011;61690;51.824;6.306;2022-08-25T02:56:21;7.85;;;5.20;;
73454;SDS011;61690;51.824;6.306;2022-08-25T02:58:48;8.52;;;5.30;;
73454;SDS011;61690;51.824;6.306;2022-08-25T03:01:13;8.20;;;4.87;;
73454;SDS011;61690;51.824;6.306;2022-08-25T03:03:41;7.78;;;5.10;;
73454;SDS011;61690;51.824;6.306;2022-08-25T03:06:08;8.48;;;5.10;;
73454;SDS011;61690;51.824;6.306;2022-08-25T03:08:36;9.27;;;5.17;;
73454;SDS011;61690;51.824;6.306;2022-08-25T03:11:02;7.70;;;5.00;;
73454;SDS011;61690;51.824;6.306;2022-08-25T03:13:29;9.27;;;5.53;;
73454;SDS011;61690;51.824;6.306;2022-08-25T03:15:56;7.45;;;4.93;;
73454;SDS011;61690;51.824;6.306;2022-08-25T03:18:22;8.38;;;5.28;;
73454;SDS011;61690;51.824;6.306;2022-08-25T03:20:47;8.40;;;5.10;;
73454;SDS011;61690;51.824;6.306;2022-08-25T03:23:13;8.23;;;5.20;;
73454;SDS011;61690;51.824;6.306;2022-08-25T03:25:39;8.00;;;5.35;;
73454;SDS011;61690;51.824;6.306;2022-08-25T03:28:23;8.88;;;5.22;;
73454;SDS011;61690;51.824;6.306;2022-08-25T03:30:49;7.80;;;5.00;;
73454;SDS011;61690;51.824;6.306;2022-08-25T03:33:14;9.23;;;5.30;;
73454;SDS011;61690;51.824;6.306;2022-08-25T03:35:40;9.82;;;5.35;;
73454;SDS011;61690;51.824;6.306;2022-08-25T03:38:05;7.70;;;5.00;;
73454;SDS011;61690;51.824;6.306;2022-08-25T03:40:31;8.17;;;5.40;;
73454;SDS011;61690;51.824;6.306;2022-08-25T03:42:56;8.32;;;5.45;;
73454;SDS011;61690;51.824;6.306;2022-08-25T03:45:23;7.93;;;4.97;;
73454;SDS011;61690;51.824;6.306;2022-08-25T03:47:49;7.57;;;5.20;;
73454;SDS011;61690;51.824;6.306;2022-08-25T03:50:17;7.40;;;4.80;;
73454;SDS011;61690;51.824;6.306;2022-08-25T03:52:44;7.57;;;4.82;;
73454;SDS011;61690;51.824;6.306;2022-08-25T03:55:15;8.48;;;5.35;;
73454;SDS011;61690;51.824;6.306;2022-08-25T03:57:40;9.20;;;5.20;;
73454;SDS011;61690;51.824;6.306;2022-08-25T04:00:07;8.50;;;5.30;;
73454;SDS011;61690;51.824;6.306;2022-08-25T04:02:33;10.60;;;5.40;;
73454;SDS011;61690;51.824;6.306;2022-08-25T04:04:59;9.67;;;5.30;;
73454;SDS011;61690;51.824;6.306;2022-08-25T04:07:25;8.55;;;5.43;;
73454;SDS011;61690;51.824;6.306;2022-08-25T04:09:52;8.40;;;5.47;;
73454;SDS011;61690;51.824;6.306;2022-08-25T04:12:18;8.93;;;5.78;;
73454;SDS011;61690;51.824;6.306;2022-08-25T04:14:44;8.00;;;5.40;;
73454;SDS011;61690;51.824;6.306;2022-08-25T04:17:09;11.57;;;5.30;;
73454;SDS011;61690;51.824;6.306;2022-08-25T04:19:35;12.10;;;5.23;;
73454;SDS011;61690;51.824;6.306;2022-08-25T04:22:00;8.97;;;5.50;;
73454;SDS011;61690;51.824;6.306;2022-08-25T04:24:25;12.17;;;5.63;;
73454;SDS011;61690;51.824;6.306;2022-08-25T04:26:51;10.77;;;5.77;;
73454;SDS011;61690;51.824;6.306;2022-08-25T04:29:18;13.05;;;5.70;;
73454;SDS011;61690;51.824;6.306;2022-08-25T04:31:45;10.15;;;5.75;;
73454;SDS011;61690;51.824;6.306;2022-08-25T04:34:14;9.27;;;5.25;;
73454;SDS011;61690;51.824;6.306;2022-08-25T04:36:40;9.43;;;5.20;;
73454;SDS011;61690;51.824;6.306;2022-08-25T04:39:05;9.57;;;5.27;;
73454;SDS011;61690;51.824;6.306;2022-08-25T04:41:31;7.15;;;5.18;;
73454;SDS011;61690;51.824;6.306;2022-08-25T04:43:57;8.57;;;4.97;;
73454;SDS011;61690;51.824;6.306;2022-08-25T04:46:26;8.35;;;5.35;;
73454;SDS011;61690;51.824;6.306;2022-08-25T04:48:53;9.30;;;5.22;;
73454;SDS011;61690;51.824;6.306;2022-08-25T04:51:21;10.90;;;5.53;;
73454;SDS011;61690;51.824;6.306;2022-08-25T04:53:49;9.63;;;5.45;;
73454;SDS011;61690;51.824;6.306;2022-08-25T04:56:16;8.23;;;4.75;;
73454;SDS011;61690;51.824;6.306;2022-08-25T04:58:43;8.60;;;5.18;;
73454;SDS011;61690;51.824;6.306;2022-08-25T05:01:15;8.45;;;5.40;;
73454;SDS011;61690;51.824;6.306;2022-08-25T05:03:43;8.37;;;5.30;;
73454;SDS011;61690;51.824;6.306;2022-08-25T05:06:10;9.25;;;5.60;;
73454;SDS011;61690;51.824;6.306;2022-08-25T05:08:35;8.02;;;5.18;;
73454;SDS011;61690;51.824;6.306;2022-08-25T05:11:04;8.63;;;5.40;;
73454;SDS011;61690;51.824;6.306;2022-08-25T05:13:31;8.30;;;5.22;;
73454;SDS011;61690;51.824;6.306;2022-08-25T05:15:57;10.67;;;5.57;;
73454;SDS011;61690;51.824;6.306;2022-08-25T05:18:24;10.70;;;5.18;;
73454;SDS011;61690;51.824;6.306;2022-08-25T05:20:53;10.02;;;5.30;;
73454;SDS011;61690;51.824;6.306;2022-08-25T05:23:19;8.00;;;4.80;;
73454;SDS011;61690;51.824;6.306;2022-08-25T05:25:46;9.15;;;5.28;;
73454;SDS011;61690;51.824;6.306;2022-08-25T05:28:12;8.63;;;5.43;;
73454;SDS011;61690;51.824;6.306;2022-08-25T05:30:39;7.93;;;4.93;;
73454;SDS011;61690;51.824;6.306;2022-08-25T05:33:06;7.78;;;5.30;;
73454;SDS011;61690;51.824;6.306;2022-08-25T05:35:31;11.30;;;5.22;;
73454;SDS011;61690;51.824;6.306;2022-08-25T05:37:57;9.13;;;5.27;;
73454;SDS011;61690;51.824;6.306;2022-08-25T05:40:23;8.23;;;5.47;;
73454;SDS011;61690;51.824;6.306;2022-08-25T05:42:49;9.75;;;5.40;;
73454;SDS011;61690;51.824;6.306;2022-08-25T05:45:15;8.88;;;5.38;;
73454;SDS011;61690;51.824;6.306;2022-08-25T05:47:41;10.30;;;5.60;;
73454;SDS011;61690;51.824;6.306;2022-08-25T05:50:07;9.80;;;5.50;;
73454;SDS011;61690;51.824;6.306;2022-08-25T05:52:33;9.55;;;5.47;;
73454;SDS011;61690;51.824;6.306;2022-08-25T05:54:59;11.80;;;5.28;;
73454;SDS011;61690;51.824;6.306;2022-08-25T05:57:24;10.87;;;5.57;;
73454;SDS011;61690;51.824;6.306;2022-08-25T05:59:49;10.77;;;5.50;;
73454;SDS011;61690;51.824;6.306;2022-08-25T06:02:15;8.03;;;5.50;;
73454;SDS011;61690;51.824;6.306;2022-08-25T06:05:07;8.30;;;5.25;;
73454;SDS011;61690;51.824;6.306;2022-08-25T06:07:33;8.10;;;5.15;;
73454;SDS011;61690;51.824;6.306;2022-08-25T06:10:00;9.63;;;5.53;;
73454;SDS011;61690;51.824;6.306;2022-08-25T06:12:26;8.85;;;5.68;;
73454;SDS011;61690;51.824;6.306;2022-08-25T06:14:51;7.73;;;4.57;;
73454;SDS011;61690;51.824;6.306;2022-08-25T06:17:16;9.00;;;5.20;;
73454;SDS011;61690;51.824;6.306;2022-08-25T06:19:42;8.47;;;5.43;;
73454;SDS011;61690;51.824;6.306;2022-08-25T06:22:08;8.65;;;5.10;;
73454;SDS011;61690;51.824;6.306;2022-08-25T06:24:33;9.03;;;4.83;;
73454;SDS011;61690;51.824;6.306;2022-08-25T06:26:59;9.23;;;4.90;;
73454;SDS011;61690;51.824;6.306;2022-08-25T06:29:24;7.33;;;4.60;;
73454;SDS011;61690;51.824;6.306;2022-08-25T06:31:50;8.07;;;5.07;;
73454;SDS011;61690;51.824;6.306;2022-08-25T06:34:15;8.43;;;4.90;;
73454;SDS011;61690;51.824;6.306;2022-08-25T06:36:42;8.60;;;5.40;;
73454;SDS011;61690;51.824;6.306;2022-08-25T06:39:07;10.67;;;4.90;;
73454;SDS011;61690;51.824;6.306;2022-08-25T06:41:33;9.48;;;5.03;;
73454;SDS011;61690;51.824;6.306;2022-08-25T06:43:59;8.27;;;5.00;;
73454;SDS011;61690;51.824;6.306;2022-08-25T06:46:25;8.40;;;4.83;;
73454;SDS011;61690;51.824;6.306;2022-08-25T06:48:55;7.35;;;5.13;;
73454;SDS011;61690;51.824;6.306;2022-08-25T06:51:22;7.90;;;5.10;;
73454;SDS011;61690;51.824;6.306;2022-08-25T06:53:50;8.40;;;4.90;;
73454;SDS011;61690;51.824;6.306;2022-08-25T06:56:17;8.35;;;5.28;;
73454;SDS011;61690;51.824;6.306;2022-08-25T06:58:44;8.30;;;5.20;;
73454;SDS011;61690;51.824;6.306;2022-08-25T07:01:17;8.97;;;5.30;;
73454;SDS011;61690;51.824;6.306;2022-08-25T07:03:46;7.63;;;4.90;;
73454;SDS011;61690;51.824;6.306;2022-08-25T07:06:12;7.88;;;5.40;;
73454;SDS011;61690;51.824;6.306;2022-08-25T07:08:37;7.33;;;4.90;;
73454;SDS011;61690;51.824;6.306;2022-08-25T07:11:03;8.80;;;4.83;;
73454;SDS011;61690;51.824;6.306;2022-08-25T07:13:33;7.75;;;5.25;;
73454;SDS011;61690;51.824;6.306;2022-08-25T07:16:00;7.60;;;5.65;;
73454;SDS011;61690;51.824;6.306;2022-08-25T07:18:26;7.97;;;5.10;;
73454;SDS011;61690;51.824;6.306;2022-08-25T07:20:51;6.90;;;5.30;;
73454;SDS011;61690;51.824;6.306;2022-08-25T07:23:18;6.45;;;4.82;;
73454;SDS011;61690;51.824;6.306;2022-08-25T07:25:44;6.70;;;4.77;;
73454;SDS011;61690;51.824;6.306;2022-08-25T07:28:09;7.70;;;5.20;;
73454;SDS011;61690;51.824;6.306;2022-08-25T07:30:34;7.27;;;5.40;;
73454;SDS011;61690;51.824;6.306;2022-08-25T07:33:00;7.20;;;4.80;;
73454;SDS011;61690;51.824;6.306;2022-08-25T07:35:25;8.07;;;5.13;;
73454;SDS011;61690;51.824;6.306;2022-08-25T07:37:52;7.88;;;5.30;;
73454;SDS011;61690;51.824;6.306;2022-08-25T07:40:25;7.97;;;5.25;;
73454;SDS011;61690;51.824;6.306;2022-08-25T07:42:55;6.97;;;5.00;;
73454;SDS011;61690;51.824;6.306;2022-08-25T07:45:26;6.88;;;4.93;;
73454;SDS011;61690;51.824;6.306;2022-08-25T07:47:57;7.10;;;5.15;;
73454;SDS011;61690;51.824;6.306;2022-08-25T07:50:25;6.75;;;5.03;;
73454;SDS011;61690;51.824;6.306;2022-08-25T07:52:51;6.97;;;5.00;;
73454;SDS011;61690;51.824;6.306;2022-08-25T07:55:17;7.60;;;5.27;;
73454;SDS011;61690;51.824;6.306;2022-08-25T07:57:43;7.22;;;5.25;;
73454;SDS011;61690;51.824;6.306;2022-08-25T08:00:09;8.27;;;5.30;;
73454;SDS011;61690;51.824;6.306;2022-08-25T08:02:38;7.45;;;5.38;;
73454;SDS011;61690;51.824;6.306;2022-08-25T08:05:05;7.10;;;5.15;;
73454;SDS011;61690;51.824;6.306;2022-08-25T08:07:30;7.53;;;5.70;;
73454;SDS011;61690;51.824;6.306;2022-08-25T08:09:56;7.75;;;5.40;;
73454;SDS011;61690;51.824;6.306;2022-08-25T08:12:22;6.80;;;5.20;;
73454;SDS011;61690;51.824;6.306;2022-08-25T08:14:48;6.75;;;4.85;;
73454;SDS011;61690;51.824;6.306;2022-08-25T08:17:14;6.95;;;5.45;;
73454;SDS011;61690;51.824;6.306;2022-08-25T08:19:40;6.87;;;5.20;;
73454;SDS011;61690;51.824;6.306;2022-08-25T08:22:05;7.37;;;5.17;;
73454;SDS011;61690;51.824;6.306;2022-08-25T08:24:31;6.97;;;5.20;;
73454;SDS011;61690;51.824;6.306;2022-08-25T08:27:03;7.85;;;5.57;;
73454;SDS011;61690;51.824;6.306;2022-08-25T08:29:35;7.18;;;4.95;;
73454;SDS011;61690;51.824;6.306;2022-08-25T08:32:02;7.00;;;5.00;;
73454;SDS011;61690;51.824;6.306;2022-08-25T08:34:29;7.65;;;5.57;;
73454;SDS011;61690;51.824;6.306;2022-08-25T08:36:55;7.43;;;5.00;;
73454;SDS011;61690;51.824;6.306;2022-08-25T08:39:21;7.28;;;4.85;;
73454;SDS011;61690;51.824;6.306;2022-08-25T08:47:09;6.70;;;5.20;;
73454;SDS011;61690;51.824;6.306;2022-08-25T08:52:23;7.07;;;5.50;;
73454;SDS011;61690;51.824;6.306;2022-08-25T08:55:06;6.60;;;4.80;;
73454;SDS011;61690;51.824;6.306;2022-08-25T08:57:42;7.07;;;5.40;;
73454;SDS011;61690;51.824;6.306;2022-08-25T09:00:12;7.33;;;5.57;;
73454;SDS011;61690;51.824;6.306;2022-08-25T09:02:45;7.03;;;5.28;;
73454;SDS011;61690;51.824;6.306;2022-08-25T09:05:12;7.43;;;4.88;;
73454;SDS011;61690;51.824;6.306;2022-08-25T09:08:02;7.00;;;5.22;;
73454;SDS011;61690;51.824;6.306;2022-08-25T09:10:33;7.70;;;5.00;;
73454;SDS011;61690;51.824;6.306;2022-08-25T09:13:19;6.37;;;4.67;;
73454;SDS011;61690;51.824;6.306;2022-08-25T09:16:22;6.90;;;5.40;;
73454;SDS011;61690;51.824;6.306;2022-08-25T09:27:38;7.07;;;5.07;;
73454;SDS011;61690;51.824;6.306;2022-08-25T09:32:42;8.23;;;5.40;;
73454;SDS011;61690;51.824;6.306;2022-08-25T09:35:21;7.68;;;5.13;;
73454;SDS011;61690;51.824;6.306;2022-08-25T09:37:57;7.78;;;5.40;;
73454;SDS011;61690;51.824;6.306;2022-08-25T09:40:25;8.40;;;6.03;;
73454;SDS011;61690;51.824;6.306;2022-08-25T09:42:52;7.88;;;5.78;;
73454;SDS011;61690;51.824;6.306;2022-08-25T09:45:30;6.57;;;5.00;;
73454;SDS011;61690;51.824;6.306;2022-08-25T09:47:59;7.05;;;5.20;;
73454;SDS011;61690;51.824;6.306;2022-08-25T09:50:24;7.57;;;5.77;;
73454;SDS011;61690;51.824;6.306;2022-08-25T09:52:56;6.82;;;4.90;;
73454;SDS011;61690;51.824;6.306;2022-08-25T09:55:36;6.97;;;5.15;;
73454;SDS011;61690;51.824;6.306;2022-08-25T09:58:12;7.32;;;5.47;;
73454;SDS011;61690;51.824;6.306;2022-08-25T10:01:05;6.88;;;4.78;;
73454;SDS011;61690;51.824;6.306;2022-08-25T10:03:53;7.40;;;5.50;;
73454;SDS011;61690;51.824;6.306;2022-08-25T10:06:34;6.78;;;5.47;;
73454;SDS011;61690;51.824;6.306;2022-08-25T10:09:07;7.20;;;5.55;;
73454;SDS011;61690;51.824;6.306;2022-08-25T10:11:37;7.53;;;5.30;;
73454;SDS011;61690;51.824;6.306;2022-08-25T10:16:43;6.47;;;4.70;;
73454;SDS011;61690;51.824;6.306;2022-08-25T10:19:21;7.85;;;5.90;;
73454;SDS011;61690;51.824;6.306;2022-08-25T10:22:10;9.73;;;5.10;;
73454;SDS011;61690;51.824;6.306;2022-08-25T10:24:34;16.80;;;6.00;;
73454;SDS011;61690;51.824;6.306;2022-08-25T10:32:22;9.90;;;5.07;;
73454;SDS011;61690;51.824;6.306;2022-08-25T10:34:54;8.35;;;4.30;;
73454;SDS011;61690;51.824;6.306;2022-08-25T10:37:33;9.68;;;5.07;;
73454;SDS011;61690;51.824;6.306;2022-08-25T10:40:24;8.43;;;5.18;;
73454;SDS011;61690;51.824;6.306;2022-08-25T10:43:05;6.90;;;4.50;;
73454;SDS011;61690;51.824;6.306;2022-08-25T10:45:36;9.18;;;4.82;;
73454;SDS011;61690;51.824;6.306;2022-08-25T10:50:55;7.95;;;4.25;;
73454;SDS011;61690;51.824;6.306;2022-08-25T10:56:45;7.47;;;4.80;;
73454;SDS011;61690;51.824;6.306;2022-08-25T11:07:23;6.60;;;4.57;;
73454;SDS011;61690;51.824;6.306;2022-08-25T11:09:53;9.40;;;5.00;;
73454;SDS011;61690;51.824;6.306;2022-08-25T11:12:26;8.65;;;4.50;;
73454;SDS011;61690;51.824;6.306;2022-08-25T11:15:00;7.75;;;4.47;;
73454;SDS011;61690;51.824;6.306;2022-08-25T11:20:15;9.00;;;4.75;;
73454;SDS011;61690;51.824;6.306;2022-08-25T11:22:54;10.60;;;4.83;;
73454;SDS011;61690;51.824;6.306;2022-08-25T11:25:44;11.35;;;4.70;;
73454;SDS011;61690;51.824;6.306;2022-08-25T11:28:26;10.13;;;4.85;;
73454;SDS011;61690;51.824;6.306;2022-08-25T11:30:59;9.93;;;4.70;;
73454;SDS011;61690;51.824;6.306;2022-08-25T11:33:27;12.68;;;4.63;;
73454;SDS011;61690;51.824;6.306;2022-08-25T11:36:05;7.87;;;4.57;;
73454;SDS011;61690;51.824;6.306;2022-08-25T11:41:53;8.68;;;4.80;;
73454;SDS011;61690;51.824;6.306;2022-08-25T11:46:52;7.63;;;4.70;;
73454;SDS011;61690;51.824;6.306;2022-08-25T11:51:56;8.48;;;5.40;;
73454;SDS011;61690;51.824;6.306;2022-08-25T11:54:29;9.25;;;4.85;;
73454;SDS011;61690;51.824;6.306;2022-08-25T11:57:01;8.90;;;4.53;;
73454;SDS011;61690;51.824;6.306;2022-08-25T12:04:54;9.82;;;4.47;;
73454;SDS011;61690;51.824;6.306;2022-08-25T12:07:24;8.90;;;4.70;;
73454;SDS011;61690;51.824;6.306;2022-08-25T12:12:27;7.77;;;4.50;;
73454;SDS011;61690;51.824;6.306;2022-08-25T12:15:27;10.02;;;5.20;;
73454;SDS011;61690;51.824;6.306;2022-08-25T12:18:10;11.82;;;5.00;;
73454;SDS011;61690;51.824;6.306;2022-08-25T12:23:33;11.60;;;4.95;;
73454;SDS011;61690;51.824;6.306;2022-08-25T12:28:51;8.57;;;5.13;;
73454;SDS011;61690;51.824;6.306;2022-08-25T12:34:12;8.15;;;5.07;;
73454;SDS011;61690;51.824;6.306;2022-08-25T12:37:19;8.73;;;5.15;;
73454;SDS011;61690;51.824;6.306;2022-08-25T12:45:11;8.55;;;5.68;;
73454;SDS011;61690;51.824;6.306;2022-08-25T12:47:41;8.60;;;5.15;;
73454;SDS011;61690;51.824;6.306;2022-08-25T12:52:51;9.23;;;5.03;;
73454;SDS011;61690;51.824;6.306;2022-08-25T12:55:20;11.03;;;5.60;;
73454;SDS011;61690;51.824;6.306;2022-08-25T12:57:50;8.23;;;5.28;;
73454;SDS011;61690;51.824;6.306;2022-08-25T13:11:45;10.63;;;5.65;;
73454;SDS011;61690;51.824;6.306;2022-08-25T13:17:02;10.18;;;4.50;;
73454;SDS011;61690;51.824;6.306;2022-08-25T13:19:29;10.82;;;4.20;;
73454;SDS011;61690;51.824;6.306;2022-08-25T13:21:55;6.27;;;4.07;;
73454;SDS011;61690;51.824;6.306;2022-08-25T13:24:31;7.57;;;4.18;;
73454;SDS011;61690;51.824;6.306;2022-08-25T13:27:00;11.13;;;4.07;;
73454;SDS011;61690;51.824;6.306;2022-08-25T13:29:29;7.35;;;4.13;;
73454;SDS011;61690;51.824;6.306;2022-08-25T13:34:24;6.50;;;4.25;;
73454;SDS011;61690;51.824;6.306;2022-08-25T13:36:51;7.75;;;4.40;;
73454;SDS011;61690;51.824;6.306;2022-08-25T13:39:36;7.18;;;4.35;;
73454;SDS011;61690;51.824;6.306;2022-08-25T13:42:04;8.35;;;4.20;;
73454;SDS011;61690;51.824;6.306;2022-08-25T13:44:34;10.37;;;4.40;;
73454;SDS011;61690;51.824;6.306;2022-08-25T13:49:34;6.95;;;3.90;;
73454;SDS011;61690;51.824;6.306;2022-08-25T13:52:00;9.52;;;4.20;;
73454;SDS011;61690;51.824;6.306;2022-08-25T13:54:28;8.18;;;4.03;;
73454;SDS011;61690;51.824;6.306;2022-08-25T13:57:23;8.27;;;4.30;;
73454;SDS011;61690;51.824;6.306;2022-08-25T13:59:53;7.45;;;4.28;;
73454;SDS011;61690;51.824;6.306;2022-08-25T14:05:04;8.25;;;4.20;;
73454;SDS011;61690;51.824;6.306;2022-08-25T14:07:30;5.78;;;4.10;;
73454;SDS011;61690;51.824;6.306;2022-08-25T14:10:01;7.60;;;4.50;;
73454;SDS011;61690;51.824;6.306;2022-08-25T14:15:11;6.75;;;4.10;;
73454;SDS011;61690;51.824;6.306;2022-08-25T14:20:52;8.07;;;4.47;;
73454;SDS011;61690;51.824;6.306;2022-08-25T14:23:21;6.33;;;4.20;;
73454;SDS011;61690;51.824;6.306;2022-08-25T14:25:50;7.10;;;4.45;;
73454;SDS011;61690;51.824;6.306;2022-08-25T14:28:18;6.63;;;4.20;;
73454;SDS011;61690;51.824;6.306;2022-08-25T14:30:48;8.20;;;4.30;;
73454;SDS011;61690;51.824;6.306;2022-08-25T14:33:16;7.18;;;4.40;;
73454;SDS011;61690;51.824;6.306;2022-08-25T14:35:46;9.47;;;4.53;;
73454;SDS011;61690;51.824;6.306;2022-08-25T14:38:13;7.22;;;4.10;;
73454;SDS011;61690;51.824;6.306;2022-08-25T14:40:39;7.18;;;4.15;;
73454;SDS011;61690;51.824;6.306;2022-08-25T14:43:06;6.68;;;4.20;;
73454;SDS011;61690;51.824;6.306;2022-08-25T14:45:32;7.22;;;4.25;;
73454;SDS011;61690;51.824;6.306;2022-08-25T14:48:02;8.47;;;4.40;;
73454;SDS011;61690;51.824;6.306;2022-08-25T14:50:29;7.63;;;4.20;;
73454;SDS011;61690;51.824;6.306;2022-08-25T14:52:55;6.97;;;4.27;;
73454;SDS011;61690;51.824;6.306;2022-08-25T14:55:20;8.40;;;4.35;;
73454;SDS011;61690;51.824;6.306;2022-08-25T14:57:46;6.50;;;4.50;;
73454;SDS011;61690;51.824;6.306;2022-08-25T15:00:11;6.10;;;4.30;;
73454;SDS011;61690;51.824;6.306;2022-08-25T15:02:38;6.83;;;4.50;;
73454;SDS011;61690;51.824;6.306;2022-08-25T15:05:06;6.95;;;4.53;;
73454;SDS011;61690;51.824;6.306;2022-08-25T15:07:35;7.25;;;4.38;;
73454;SDS011;61690;51.824;6.306;2022-08-25T15:10:20;8.43;;;4.63;;
73454;SDS011;61690;51.824;6.306;2022-08-25T15:12:45;6.97;;;4.70;;
73454;SDS011;61690;51.824;6.306;2022-08-25T15:15:11;6.87;;;4.23;;
73454;SDS011;61690;51.824;6.306;2022-08-25T15:17:36;6.13;;;4.30;;
73454;SDS011;61690;51.824;6.306;2022-08-25T15:20:05;6.97;;;4.20;;
73454;SDS011;61690;51.824;6.306;2022-08-25T15:22:30;6.85;;;4.50;;
73454;SDS011;61690;51.824;6.306;2022-08-25T15:24:56;7.50;;;4.40;;
73454;SDS011;61690;51.824;6.306;2022-08-25T15:27:22;6.25;;;4.38;;
73454;SDS011;61690;51.824;6.306;2022-08-25T15:29:47;6.47;;;4.10;;
73454;SDS011;61690;51.824;6.306;2022-08-25T15:32:13;7.70;;;4.40;;
73454;SDS011;61690;51.824;6.306;2022-08-25T15:34:38;11.63;;;4.35;;
73454;SDS011;61690;51.824;6.306;2022-08-25T15:37:09;9.67;;;4.70;;
73454;SDS011;61690;51.824;6.306;2022-08-25T15:39:37;6.95;;;4.40;;
73454;SDS011;61690;51.824;6.306;2022-08-25T15:42:04;7.75;;;4.18;;
73454;SDS011;61690;51.824;6.306;2022-08-25T15:44:30;9.70;;;4.13;;
73454;SDS011;61690;51.824;6.306;2022-08-25T15:46:56;6.85;;;4.45;;
73454;SDS011;61690;51.824;6.306;2022-08-25T15:49:23;9.32;;;4.10;;
73454;SDS011;61690;51.824;6.306;2022-08-25T15:51:49;8.60;;;4.43;;
73454;SDS011;61690;51.824;6.306;2022-08-25T15:54:16;7.63;;;4.20;;
73454;SDS011;61690;51.824;6.306;2022-08-25T15:56:41;6.93;;;4.50;;
73454;SDS011;61690;51.824;6.306;2022-08-25T15:59:08;10.20;;;4.03;;
73454;SDS011;61690;51.824;6.306;2022-08-25T16:01:34;7.95;;;4.35;;
73454;SDS011;61690;51.824;6.306;2022-08-25T16:03:59;7.23;;;4.30;;
73454;SDS011;61690;51.824;6.306;2022-08-25T16:06:25;8.07;;;4.30;;
73454;SDS011;61690;51.824;6.306;2022-08-25T16:08:51;7.25;;;4.00;;
73454;SDS011;61690;51.824;6.306;2022-08-25T16:11:18;6.95;;;4.45;;
73454;SDS011;61690;51.824;6.306;2022-08-25T16:13:45;13.77;;;4.33;;
73454;SDS011;61690;51.824;6.306;2022-08-25T16:16:12;8.38;;;4.43;;
73454;SDS011;61690;51.824;6.306;2022-08-25T16:18:38;6.32;;;3.88;;
73454;SDS011;61690;51.824;6.306;2022-08-25T16:21:07;7.87;;;3.80;;
73454;SDS011;61690;51.824;6.306;2022-08-25T16:23:34;9.20;;;4.43;;
73454;SDS011;61690;51.824;6.306;2022-08-25T16:26:02;6.67;;;4.20;;
73454;SDS011;61690;51.824;6.306;2022-08-25T16:28:29;8.18;;;4.03;;
73454;SDS011;61690;51.824;6.306;2022-08-25T16:30:55;8.17;;;3.90;;
73454;SDS011;61690;51.824;6.306;2022-08-25T16:33:20;9.30;;;4.30;;
73454;SDS011;61690;51.824;6.306;2022-08-25T16:35:46;7.73;;;4.07;;
73454;SDS011;61690;51.824;6.306;2022-08-25T16:38:11;7.27;;;4.40;;
73454;SDS011;61690;51.824;6.306;2022-08-25T16:40:40;8.67;;;4.40;;
73454;SDS011;61690;51.824;6.306;2022-08-25T16:43:06;8.18;;;3.97;;
73454;SDS011;61690;51.824;6.306;2022-08-25T16:45:33;8.90;;;4.00;;
73454;SDS011;61690;51.824;6.306;2022-08-25T16:47:59;7.18;;;4.00;;
73454;SDS011;61690;51.824;6.306;2022-08-25T16:50:24;7.90;;;4.60;;
73454;SDS011;61690;51.824;6.306;2022-08-25T16:52:50;5.63;;;3.90;;